Latest Coastal Weather Observations for Arlington Reef

IDQ60701

Issued at 11:11 am EST Thursday 2 April 2015 (issued every 10 minutes, with the page automatically refreshed every 10 minutes)

About coastal observations | Map of coastal stations | Coastal observations for QLD | Marine services | Other Formats
Station Details ID: 200879 Name: ARLINGTON REEF Lat: -16.72 Lon: 146.11 Height: 0.0 m
Data from the previous 72 hours. | See also: Recent months at Arlington Reef
Date/Time
EST
Temp

°C
Wind Pressure Rain
since 9am
mm
Weather Cloud Vis
km
Sea
Height
m
Swell
Dir
 
Speed
knots
Gust
knots
hPa Trend Height
m
Period
s
Dir
02/11:00am - S 16 19 1012.7 - - - - - - - - -
02/10:30am - S 17 19 1012.9 - - - - - - - - -
02/10:00am - S 13 15 1013.1 - - - - - - - - -
02/09:30am - S 12 14 1013.2 - - - - - - - - -
02/09:00am - S 12 14 1013.2 - - - - - - - - -
02/08:30am - SSE 11 13 1013.1 - - - - - - - - -
02/08:00am - SE 10 13 1012.7 - - - - - - - - -
02/07:30am - SE 13 15 1012.2 - - - - - - - - -
02/07:00am - SE 12 14 1011.9 - - - - - - - - -
02/06:30am - SE 11 13 1011.6 - - - - - - - - -
02/06:00am - SE 10 12 1011.2 - - - - - - - - -
02/05:30am - SE 11 13 1010.9 - - - - - - - - -
02/05:00am - SE 10 13 1010.6 - - - - - - - - -
02/04:30am - SE 10 11 1010.5 - - - - - - - - -
02/04:00am - SE 11 14 1010.5 - - - - - - - - -
02/03:30am - SE 11 13 1010.4 - - - - - - - - -
02/03:00am - SE 11 13 1010.6 - - - - - - - - -
02/02:30am - SE 12 14 1010.7 - - - - - - - - -
02/02:00am - SE 11 14 1011.1 - - - - - - - - -
02/01:30am - SE 11 14 1011.2 - - - - - - - - -
02/01:00am - SE 11 13 1011.7 - - - - - - - - -
02/12:30am - SE 11 13 1012.1 - - - - - - - - -
02/12:00am - SE 11 13 1012.6 - - - - - - - - -
 
Date/Time
EST
Temp

°C
Wind Pressure Rain
since 9am
mm
Weather Cloud Vis
km
Sea
Height
m
Swell
Dir
 
Speed
knots
Gust
knots
hPa Trend Height
m
Period
s
Dir
01/11:30pm - SE 11 13 1012.7 - - - - - - - - -
01/11:00pm - SE 11 12 1012.6 - - - - - - - - -
01/10:30pm - SE 11 13 1012.6 - - - - - - - - -
01/10:00pm - SE 13 15 1012.7 - - - - - - - - -
01/09:30pm - SE 13 15 1012.7 - - - - - - - - -
01/09:00pm - SE 13 15 1012.7 - - - - - - - - -
01/08:30pm - SE 14 16 1012.2 - - - - - - - - -
01/08:00pm - SE 13 18 1011.9 - - - - - - - - -
01/07:30pm - SE 14 16 1011.6 - - - - - - - - -
01/07:00pm - SE 14 16 1011.4 - - - - - - - - -
01/06:30pm - SE 14 17 1011.2 - - - - - - - - -
01/06:00pm - SE 14 17 1011.1 - - - - - - - - -
01/05:30pm - SE 14 16 1010.9 - - - - - - - - -
01/05:00pm - SSE 14 18 1010.8 - - - - - - - - -
01/04:30pm - SE 15 17 1010.6 - - - - - - - - -
01/04:00pm - SE 16 18 1010.5 - - - - - - - - -
01/03:30pm - SSE 15 18 1010.7 - - - - - - - - -
01/03:00pm - SE 17 19 1010.7 - - - - - - - - -
01/02:30pm - SE 17 20 1010.8 - - - - - - - - -
01/02:00pm - SE 18 21 1011.1 - - - - - - - - -
01/01:30pm - SE 18 20 1011.4 - - - - - - - - -
01/01:00pm - SE 16 19 1011.9 - - - - - - - - -
01/12:30pm - SE 15 18 1012.5 - - - - - - - - -
01/12:00pm - SE 16 20 1013.0 - - - - - - - - -
01/11:30am - SE 16 18 1013.4 - - - - - - - - -
01/11:00am - SE 16 19 1013.8 - - - - - - - - -
01/10:30am - SE 17 20 1014.1 - - - - - - - - -
01/10:00am - SE 18 20 1014.2 - - - - - - - - -
01/09:30am - SE 17 19 1014.3 - - - - - - - - -
01/09:00am - SE 17 19 1014.3 - - - - - - - - -
01/08:30am - SE 17 20 1014.1 - - - - - - - - -
01/08:00am - SE 18 20 1013.8 - - - - - - - - -
01/07:30am - SE 16 20 1013.5 - - - - - - - - -
01/07:00am - SE 17 21 1013.1 - - - - - - - - -
01/06:30am - SE 19 22 1012.8 - - - - - - - - -
01/06:00am - SE 17 21 1012.5 - - - - - - - - -
01/05:30am - SE 19 23 1012.3 - - - - - - - - -
01/05:00am - SE 20 24 1011.9 - - - - - - - - -
01/04:30am - SSE 17 21 1011.9 - - - - - - - - -
01/04:00am - SSE 17 20 1011.8 - - - - - - - - -
01/03:30am - SE 18 21 1012.0 - - - - - - - - -
01/03:00am - SE 19 22 1012.2 - - - - - - - - -
01/02:30am - SSE 18 21 1012.3 - - - - - - - - -
01/02:00am - SE 18 21 1012.8 - - - - - - - - -
01/01:30am - SSE 19 22 1013.1 - - - - - - - - -
01/01:00am - SE 19 22 1013.6 - - - - - - - - -
01/12:30am - SSE 19 23 1014.0 - - - - - - - - -
01/12:00am - SSE 19 23 1014.1 - - - - - - - - -
 
Date/Time
EST
Temp

°C
Wind Pressure Rain
since 9am
mm
Weather Cloud Vis
km
Sea
Height
m
Swell
Dir
 
Speed
knots
Gust
knots
hPa Trend Height
m
Period
s
Dir
31/11:30pm - SSE 17 21 1014.6 - - - - - - - - -
31/11:00pm - SSE 19 22 1014.5 - - - - - - - - -
31/10:30pm - SSE 19 22 1014.6 - - - - - - - - -
31/10:00pm - SSE 18 21 1014.8 - - - - - - - - -
31/09:30pm - SSE 19 22 1014.8 - - - - - - - - -
31/09:00pm - SSE 19 22 1014.5 - - - - - - - - -
31/08:30pm - SSE 17 21 1014.3 - - - - - - - - -
31/08:00pm - SSE 17 21 1014.0 - - - - - - - - -
31/07:30pm - SSE 19 22 1013.6 - - - - - - - - -
31/07:00pm - SE 19 22 1013.2 - - - - - - - - -
31/06:30pm - SE 19 22 1013.0 - - - - - - - - -
31/06:00pm - SE 19 23 1012.8 - - - - - - - - -
31/05:30pm - SE 19 22 1012.6 - - - - - - - - -
31/05:00pm - SE 19 23 1012.3 - - - - - - - - -
31/04:30pm - SE 18 22 1012.3 - - - - - - - - -
31/04:00pm - SE 19 23 1012.2 - - - - - - - - -
31/03:30pm - SE 18 22 1012.3 - - - - - - - - -
31/03:00pm - SE 20 23 1012.4 - - - - - - - - -
31/02:30pm - SE 20 23 1012.8 - - - - - - - - -
31/02:00pm - SE 20 24 1012.9 - - - - - - - - -
31/01:30pm - SE 20 23 1013.3 - - - - - - - - -
31/01:00pm - SE 19 22 1013.8 - - - - - - - - -
31/12:30pm - SE 18 21 1014.1 - - - - - - - - -
31/12:00pm - SE 18 21 1014.6 - - - - - - - - -
31/11:30am - SE 19 22 1015.1 - - - - - - - - -
31/11:00am - SE 19 22 1015.3 - - - - - - - - -
31/10:30am - SE 18 21 1015.6 - - - - - - - - -
31/10:00am - SE 19 23 1015.6 - - - - - - - - -
31/09:30am - SE 19 22 1015.4 - - - - - - - - -
31/09:00am - SE 17 20 1015.5 - - - - - - - - -
31/08:30am - ESE 14 17 1015.2 - - - - - - - - -
31/08:00am - ESE 19 22 1014.9 - - - - - - - - -
31/07:30am - ESE 20 24 1014.7 - - - - - - - - -
31/07:00am - ESE 19 24 1014.2 - - - - - - - - -
31/06:30am - SE 17 24 1013.9 - - - - - - - - -
31/06:00am - SE 18 20 1013.6 - - - - - - - - -
31/05:30am - SE 18 20 1013.3 - - - - - - - - -
31/05:00am - SE 19 22 1013.1 - - - - - - - - -
31/04:30am - ESE 19 22 1013.0 - - - - - - - - -
31/04:00am - SE 18 20 1013.1 - - - - - - - - -
31/03:30am - ESE 19 22 1013.1 - - - - - - - - -
31/03:00am - SE 21 24 1013.1 - - - - - - - - -
31/02:30am - SE 20 24 1013.5 - - - - - - - - -
31/02:00am - SE 18 23 1013.9 - - - - - - - - -
31/01:30am - ESE 19 26 1014.3 - - - - - - - - -
31/01:00am - SE 17 22 1014.7 - - - - - - - - -
31/12:30am - SE 18 21 1015.0 - - - - - - - - -
31/12:00am - SE 19 23 1015.1 - - - - - - - - -
 
Date/Time
EST
Temp

°C
Wind Pressure Rain
since 9am
mm
Weather Cloud Vis
km
Sea
Height
m
Swell
Dir
 
Speed
knots
Gust
knots
hPa Trend Height
m
Period
s
Dir
30/11:30pm - SE 19 21 1015.4 - - - - - - - - -
30/11:00pm - SE 20 23 1015.6 - - - - - - - - -
30/10:30pm - SE 18 21 1015.8 - - - - - - - - -
30/10:00pm - SE 18 21 1015.9 - - - - - - - - -
30/09:30pm - SE 18 20 1015.9 - - - - - - - - -
30/09:00pm - SE 19 22 1015.9 - - - - - - - - -
30/08:30pm - SE 19 22 1015.6 - - - - - - - - -
30/08:00pm - SE 18 21 1015.3 - - - - - - - - -
30/07:30pm - SE 16 21 1015.2 - - - - - - - - -
30/07:00pm - SE 18 21 1014.7 - - - - - - - - -
30/06:30pm - SE 17 20 1014.6 - - - - - - - - -
30/06:00pm - SE 17 19 1014.5 - - - - - - - - -
30/05:30pm - SE 16 19 1014.4 - - - - - - - - -
30/05:00pm - SE 18 21 1014.2 - - - - - - - - -
30/04:30pm - SE 16 19 1014.1 - - - - - - - - -
30/04:00pm - SE 14 17 1014.1 - - - - - - - - -
30/03:30pm - SE 15 17 1013.8 - - - - - - - - -
30/03:00pm - SE 14 17 1013.8 - - - - - - - - -
30/02:30pm - SE 16 19 1013.9 - - - - - - - - -
30/02:00pm - SE 16 18 1014.1 - - - - - - - - -
30/01:30pm - SE 17 20 1014.6 - - - - - - - - -
30/01:00pm - SE 16 20 1015.0 - - - - - - - - -
30/12:30pm - SE 17 20 1015.4 - - - - - - - - -
30/12:00pm - SE 18 21 1015.7 - - - - - - - - -
30/11:30am - SE 18 22 1016.1 - - - - - - - - -

Other Formats:

Comma delimited format used in spreadsheet applications
http://www.bom.gov.au/fwo/IDQ60701/IDQ60701.94284.axf

JavaScript Object Notation format (JSON) in row-major order
http://www.bom.gov.au/fwo/IDQ60701/IDQ60701.94284.json